createdAt,value
2023-05-14T00:02:45.598Z,100201.25
2023-05-14T00:07:47.637Z,100194.44
2023-05-14T00:12:49.228Z,100194.44
2023-05-14T00:17:51.252Z,100194.44
2023-05-14T00:22:52.970Z,100180.16
2023-05-14T00:27:54.585Z,100186.94
2023-05-14T00:32:56.259Z,100177.44
2023-05-14T00:37:58.460Z,100163.97
2023-05-14T00:43:00.269Z,100169.06
2023-05-14T00:48:02.006Z,100155.59
2023-05-14T00:53:10.050Z,100160.50
2023-05-14T00:58:13.429Z,100147.88
2023-05-14T01:03:15.146Z,100154.66
2023-05-14T01:08:27.802Z,100157.97
2023-05-14T01:13:47.072Z,100134.28
2023-05-14T01:18:50.868Z,100130.63
2023-05-14T01:23:52.544Z,100128.16
2023-05-14T01:29:03.023Z,100131.50
2023-05-14T01:34:06.845Z,100131.66
2023-05-14T01:39:09.703Z,100131.66
2023-05-14T01:44:11.936Z,100129.81
2023-05-14T01:49:13.731Z,100128.16
2023-05-14T01:54:15.422Z,100133.13
2023-05-14T01:59:17.603Z,100129.59
2023-05-14T02:04:20.780Z,100129.59
2023-05-14T02:09:22.758Z,100123.69
2023-05-14T02:14:24.386Z,100117.72
2023-05-14T02:19:26.233Z,100106.66
2023-05-14T02:24:27.979Z,100106.66
2023-05-14T02:29:30.371Z,100097.31
2023-05-14T02:34:34.318Z,100093.06
2023-05-14T02:39:36.460Z,100098.91
2023-05-14T02:44:38.352Z,100093.94
2023-05-14T02:49:40.364Z,100099.03
2023-05-14T02:54:42.034Z,100099.81
2023-05-14T02:59:43.753Z,100105.78
2023-05-14T03:04:45.700Z,100097.28
2023-05-14T03:09:47.417Z,100100.75
2023-05-14T03:14:49.101Z,100094.06
2023-05-14T03:19:50.794Z,100094.94
2023-05-14T03:24:52.417Z,100097.44
2023-05-14T03:29:54.214Z,100085.72
2023-05-14T03:34:56.240Z,100092.53
2023-05-14T03:39:57.849Z,100085.91
2023-05-14T03:44:59.431Z,100085.97
2023-05-14T03:50:01.146Z,100078.34
2023-05-14T03:55:03.553Z,100076.66
2023-05-14T04:00:05.818Z,100076.63
2023-05-14T04:05:18.229Z,100065.75
2023-05-14T04:10:20.525Z,100064.94
2023-05-14T04:15:22.565Z,100061.47
2023-05-14T04:20:24.405Z,100062.31
2023-05-14T04:25:26.181Z,100062.31
2023-05-14T04:30:27.809Z,100062.38
2023-05-14T04:35:29.547Z,100061.56
2023-05-14T04:40:31.825Z,100055.63
2023-05-14T04:45:34.518Z,100053.09
2023-05-14T04:50:36.153Z,100052.22
2023-05-14T04:55:37.748Z,100057.28
2023-05-14T05:00:40.840Z,100063.91
2023-05-14T05:05:42.508Z,100056.38
2023-05-14T05:10:44.257Z,100067.22
2023-05-14T05:15:46.105Z,100072.28
2023-05-14T05:20:47.994Z,100071.41
2023-05-14T05:25:50.509Z,100067.28
2023-05-14T05:30:52.157Z,100070.66
2023-05-14T05:35:53.857Z,100063.97
2023-05-14T05:40:55.516Z,100059.00
2023-05-14T05:45:57.087Z,100054.03
2023-05-14T05:50:58.824Z,100063.28
2023-05-14T05:56:00.429Z,100049.91
2023-05-14T06:01:02.422Z,100059.16
2023-05-14T06:06:04.360Z,100060.88
2023-05-14T06:11:06.104Z,100071.78
2023-05-14T06:16:07.902Z,100065.81
2023-05-14T06:21:09.543Z,100058.13
2023-05-14T06:26:11.221Z,100050.50
2023-05-14T06:31:13.711Z,100050.34
2023-05-14T06:36:15.505Z,100052.88
2023-05-14T06:41:17.213Z,100064.53
2023-05-14T06:46:18.824Z,100062.06
2023-05-14T06:51:20.569Z,100062.91
2023-05-14T06:56:22.496Z,100063.72
2023-05-14T07:01:24.263Z,100057.03
2023-05-14T07:06:26.213Z,100059.59
2023-05-14T07:11:28.020Z,100065.50
2023-05-14T07:16:29.988Z,100050.41
2023-05-14T07:21:32.704Z,100044.38
2023-05-14T07:26:34.906Z,100040.25
2023-05-14T07:31:36.915Z,100045.34
2023-05-14T07:36:39.477Z,100029.47
2023-05-14T07:41:43.681Z,100033.66
2023-05-14T07:46:45.892Z,100022.72
2023-05-14T07:51:47.703Z,100020.19
2023-05-14T07:56:49.618Z,100014.28
2023-05-14T08:01:51.646Z,100006.63
2023-05-14T08:06:53.398Z,100000.63
2023-05-14T08:11:55.031Z,99993.28
2023-05-14T08:16:56.708Z,99989.81
2023-05-14T08:21:58.678Z,99986.50
2023-05-14T08:27:00.608Z,99988.31
2023-05-14T08:32:08.729Z,99986.72
2023-05-14T08:37:21.339Z,99986.78
2023-05-14T08:42:25.668Z,99978.38
2023-05-14T08:47:30.383Z,99969.84
2023-05-14T08:52:32.948Z,99966.56
2023-05-14T08:57:35.612Z,99963.09
2023-05-14T09:02:39.764Z,99971.63
2023-05-14T09:07:41.695Z,99968.19
2023-05-14T09:12:43.501Z,99969.19
2023-05-14T09:17:48.039Z,99974.28
2023-05-14T09:22:53.688Z,99977.66
2023-05-14T09:27:58.640Z,99965.06
2023-05-14T09:33:01.639Z,99941.59
2023-05-14T09:38:03.453Z,99953.31
2023-05-14T09:43:07.354Z,99951.81
2023-05-14T09:48:09.135Z,99947.50
2023-05-14T09:53:11.772Z,99937.31
2023-05-14T09:58:16.370Z,99940.00
2023-05-14T10:03:20.500Z,99929.97
2023-05-14T10:08:26.872Z,99918.31
2023-05-14T10:13:33.080Z,99925.16
2023-05-14T10:18:43.785Z,99910.94
2023-05-14T10:23:47.084Z,99900.03
2023-05-14T10:28:48.855Z,99883.22
2023-05-14T10:33:51.244Z,99881.63
2023-05-14T10:38:57.860Z,99882.44
2023-05-14T10:43:59.735Z,99873.19
2023-05-14T10:49:01.851Z,99864.00
2023-05-14T10:54:03.641Z,99877.47
2023-05-14T10:59:06.853Z,99863.22
2023-05-14T11:04:17.907Z,99863.28
2023-05-14T11:09:21.390Z,99859.13
2023-05-14T11:14:23.345Z,99856.59
2023-05-14T11:19:25.151Z,99844.81
2023-05-14T11:24:26.786Z,99843.13
2023-05-14T11:29:28.480Z,99843.09
2023-05-14T11:34:30.148Z,99839.75
2023-05-14T11:39:33.091Z,99827.09
2023-05-14T11:44:34.974Z,99823.69
2023-05-14T11:49:37.959Z,99818.69
2023-05-14T11:54:41.001Z,99820.41
2023-05-14T11:59:43.032Z,99801.91
2023-05-14T12:04:49.497Z,99794.34
2023-05-14T12:09:57.357Z,99783.44
2023-05-14T12:14:59.928Z,99775.03
2023-05-14T12:20:01.698Z,99775.84
2023-05-14T12:25:04.040Z,99754.81
2023-05-14T12:30:20.033Z,99745.59
2023-05-14T12:35:23.584Z,99733.78
2023-05-14T12:40:25.995Z,99726.22
2023-05-14T12:45:28.189Z,99733.78
2023-05-14T12:50:29.884Z,99732.13
2023-05-14T12:55:31.876Z,99729.56
2023-05-14T13:00:33.559Z,99737.16
2023-05-14T13:05:35.942Z,99730.44
2023-05-14T13:10:38.103Z,99730.41
2023-05-14T13:15:39.734Z,99723.69
2023-05-14T13:20:43.250Z,99716.13
2023-05-14T13:25:45.782Z,99720.31
2023-05-14T13:31:08.236Z,99700.94
2023-05-14T13:36:12.092Z,99715.25
2023-05-14T13:41:13.979Z,99710.22
2023-05-14T13:46:15.753Z,99702.66
2023-05-14T13:51:17.728Z,99701.81
2023-05-14T13:56:19.791Z,99698.44
2023-05-14T14:01:21.925Z,99699.28
2023-05-14T14:06:25.687Z,99700.97
2023-05-14T14:11:27.650Z,99690.03
2023-05-14T14:16:29.531Z,99681.63
2023-05-14T14:21:31.839Z,99679.09
2023-05-14T14:26:33.789Z,99674.06
2023-05-14T14:31:36.509Z,99670.69
2023-05-14T14:36:38.226Z,99652.19
2023-05-14T14:41:40.079Z,99651.38
2023-05-14T14:46:42.970Z,99638.72
2023-05-14T14:51:44.908Z,99642.09
2023-05-14T14:56:49.223Z,99634.53
2023-05-14T15:01:51.137Z,99621.09
2023-05-14T15:06:52.769Z,99619.41
2023-05-14T15:11:54.561Z,99605.94
2023-05-14T15:16:56.239Z,99611.00
2023-05-14T15:21:58.586Z,99605.09
2023-05-14T15:27:00.417Z,99606.78
2023-05-14T15:32:02.521Z,99595.84
2023-05-14T15:37:04.415Z,99575.66
2023-05-14T15:42:06.554Z,99566.47
2023-05-14T15:47:08.225Z,99568.16
2023-05-14T15:52:10.035Z,99558.06
2023-05-14T15:57:14.569Z,99552.16
2023-05-14T16:02:16.308Z,99556.38
2023-05-14T16:07:17.972Z,99553.84
2023-05-14T16:12:19.679Z,99545.44
2023-05-14T16:17:21.315Z,99530.31
2023-05-14T16:22:22.958Z,99523.59
2023-05-14T16:27:24.986Z,99513.50
2023-05-14T16:32:27.720Z,99508.44
2023-05-14T16:37:29.610Z,99507.59
2023-05-14T16:42:31.294Z,99501.72
2023-05-14T16:47:33.010Z,99495.00
2023-05-14T16:52:34.802Z,99490.81
2023-05-14T16:57:36.740Z,99493.31
2023-05-14T17:02:39.248Z,99479.88
2023-05-14T17:07:41.355Z,99480.69
2023-05-14T17:12:43.472Z,99483.22
2023-05-14T17:17:52.675Z,99479.84
2023-05-14T17:22:54.511Z,99473.16
2023-05-14T17:27:56.344Z,99472.28
2023-05-14T17:32:58.603Z,99465.56
2023-05-14T17:38:04.962Z,99453.81
2023-05-14T17:48:35.051Z,99458.84
2023-05-14T17:53:37.143Z,99433.63
2023-05-14T17:58:41.617Z,99437.88
2023-05-14T18:03:43.601Z,99442.91
2023-05-14T18:08:45.350Z,99436.22
2023-05-14T18:13:49.125Z,99425.28
2023-05-14T18:18:51.918Z,99411.81
2023-05-14T18:24:07.508Z,99405.09
2023-05-14T18:29:09.243Z,99426.97
2023-05-14T18:34:11.816Z,99425.25
2023-05-14T18:39:14.740Z,99420.25
2023-05-14T18:44:16.646Z,99422.72
2023-05-14T18:49:18.409Z,99413.47
2023-05-14T18:54:20.182Z,99414.28
2023-05-14T18:59:21.845Z,99391.56
2023-05-14T19:04:25.295Z,99381.47
2023-05-14T19:09:27.069Z,99378.97
2023-05-14T19:14:29.623Z,99362.13
2023-05-14T19:19:31.581Z,99369.69
2023-05-14T19:24:37.421Z,99372.28
2023-05-14T19:29:41.359Z,99363.88
2023-05-14T19:34:49.540Z,99368.94
2023-05-14T19:40:22.216Z,99392.38
2023-05-14T19:45:24.278Z,99384.03
2023-05-14T19:50:26.388Z,99373.03
2023-05-14T19:55:28.278Z,99352.88
2023-05-14T20:00:30.003Z,99360.38
2023-05-14T20:05:34.244Z,99352.00
2023-05-14T20:10:35.912Z,99347.84
2023-05-14T20:15:37.793Z,99341.91
2023-05-14T20:20:39.995Z,99331.00
2023-05-14T20:25:43.023Z,99317.53
2023-05-14T20:30:44.720Z,99313.28
2023-05-14T20:35:46.419Z,99326.78
2023-05-14T20:40:48.348Z,99325.06
2023-05-14T20:45:50.030Z,99314.97
2023-05-14T20:50:51.678Z,99315.72
2023-05-14T20:55:53.313Z,99314.81
2023-05-14T21:00:54.973Z,99319.84
2023-05-14T21:05:56.865Z,99293.72
2023-05-14T21:10:59.067Z,99297.91
2023-05-14T21:16:01.348Z,99302.09
2023-05-14T21:21:03.319Z,99320.53
2023-05-14T21:26:05.022Z,99295.31
2023-05-14T21:31:06.662Z,99240.84
2023-05-14T21:36:09.321Z,99226.47
2023-05-14T21:41:11.006Z,99215.53
2023-05-14T21:46:12.747Z,99236.59
2023-05-14T21:51:14.566Z,99239.94
2023-05-14T21:56:16.828Z,99215.59
2023-05-14T22:01:18.590Z,99224.91
2023-05-14T22:06:20.983Z,99248.44
2023-05-14T22:11:22.666Z,99232.47
2023-05-14T22:16:26.364Z,99224.06
2023-05-14T22:21:28.762Z,99233.28
2023-05-14T22:26:30.748Z,99188.66
2023-05-14T22:31:32.982Z,99207.13
2023-05-14T22:36:36.385Z,99205.44
2023-05-14T22:41:38.163Z,99214.63
2023-05-14T22:46:39.859Z,99227.22
2023-05-14T22:51:42.384Z,99209.53
2023-05-14T22:56:44.076Z,99202.75
2023-05-14T23:01:45.884Z,99171.75
2023-05-14T23:06:48.347Z,99149.06
2023-05-14T23:11:50.358Z,99165.91
2023-05-14T23:16:52.260Z,99151.66
2023-05-14T23:21:53.942Z,99154.06
2023-05-14T23:26:55.895Z,99153.22
2023-05-14T23:31:57.603Z,99151.47
2023-05-14T23:36:59.301Z,99138.00
2023-05-14T23:42:01.103Z,99150.63
2023-05-14T23:47:03.251Z,99158.19
2023-05-14T23:52:05.293Z,99146.44
2023-05-14T23:57:07.151Z,99154.78
